Time;durP1;ratioP1;P1;durP2;ratioP2;P2;SDS_P1;SDS_P2;PMS_P1;PMS_P2;Temp;Humidity;BMP_temperature;BMP_pressure;BME280_temperature;BME280_humidity;BME280_pressure;Samples;Min_cycle;Max_cycle;Signal;HPM_P1;HPM_P2
2021/08/22 00:00:31;;;;;;;8.60;6.50;;;;;;;26.53;55.71;98919.00;5112855;28;20077;-49
2021/08/22 00:02:57;;;;;;;8.13;6.03;;;;;;;26.43;56.06;98920.78;5112956;28;20022;-49
2021/08/22 00:05:23;;;;;;;18.75;6.18;;;;;;;26.29;56.39;98919.97;5094554;28;20114;-49
2021/08/22 00:07:49;;;;;;;9.77;6.05;;;;;;;26.06;56.80;98911.78;5112838;28;20020;-49
2021/08/22 00:10:15;;;;;;;9.95;5.78;;;;;;;25.86;57.78;98922.91;5112402;28;20053;-51
2021/08/22 00:12:41;;;;;;;14.68;6.80;;;;;;;25.70;58.40;98925.84;5112776;28;20036;-49
2021/08/22 00:15:09;;;;;;;23.90;21.65;;;;;;;25.54;58.99;98918.31;5112724;28;20020;-49
2021/08/22 00:17:34;;;;;;;12.60;10.02;;;;;;;25.39;59.29;98920.13;5112725;28;20023;-49
2021/08/22 00:20:00;;;;;;;12.50;6.65;;;;;;;25.36;59.60;98923.41;5111290;28;20042;-49
2021/08/22 00:22:26;;;;;;;9.98;7.22;;;;;;;25.48;59.19;98925.66;5094306;28;20523;-49
2021/08/22 00:24:52;;;;;;;11.48;6.20;;;;;;;25.56;58.97;98930.38;5112551;28;20024;-49
2021/08/22 00:27:17;;;;;;;9.15;5.72;;;;;;;25.52;58.69;98932.03;5112516;28;20024;-49
2021/08/22 00:29:43;;;;;;;15.07;7.72;;;;;;;25.57;58.28;98934.63;5112467;28;20104;-49
2021/08/22 00:32:09;;;;;;;10.68;5.53;;;;;;;25.66;58.00;98934.78;5112473;28;20027;-49
2021/08/22 00:34:35;;;;;;;9.40;6.93;;;;;;;25.72;56.98;98933.59;5111641;28;20465;-49
2021/08/22 00:37:01;;;;;;;9.40;5.13;;;;;;;25.85;56.23;98940.91;5112383;28;20059;-49
2021/08/22 00:39:28;;;;;;;6.95;5.30;;;;;;;25.95;55.35;98928.41;5094036;28;20024;-50
2021/08/22 00:41:54;;;;;;;11.43;5.70;;;;;;;26.15;54.69;98940.69;5094117;28;20498;-49
2021/08/22 00:44:21;;;;;;;6.47;5.35;;;;;;;26.42;53.49;98946.13;5112301;28;20047;-50
2021/08/22 00:46:48;;;;;;;9.25;5.32;;;;;;;26.25;53.28;98945.88;5112281;28;20032;-48
2021/08/22 00:49:13;;;;;;;17.75;8.13;;;;;;;26.17;53.86;98943.88;5093961;28;20028;-49
2021/08/22 00:51:40;;;;;;;10.73;5.18;;;;;;;26.47;53.08;98950.59;5112506;28;20089;-50
2021/08/22 00:54:07;;;;;;;11.70;7.95;;;;;;;26.83;52.54;98956.09;5093898;28;20527;-50
2021/08/22 00:56:33;;;;;;;12.85;5.38;;;;;;;27.16;51.40;98960.50;5112181;28;20015;-49
2021/08/22 00:59:10;;;;;;;8.50;6.80;;;;;;;27.10;51.11;98954.44;5112103;28;20111;-49
2021/08/22 01:01:38;;;;;;;7.93;5.70;;;;;;;26.83;51.56;98960.69;5112289;28;20058;-49
2021/08/22 01:04:07;;;;;;;9.30;5.15;;;;;;;26.55;52.59;98957.19;5112064;28;20027;-49
2021/08/22 01:06:38;;;;;;;8.15;5.30;;;;;;;26.25;53.34;98962.03;5093804;28;20524;-49
2021/08/22 01:09:17;;;;;;;12.45;5.53;;;;;;;26.00;53.90;98972.16;5112383;28;20457;-49
2021/08/22 01:11:45;;;;;;;9.45;5.40;;;;;;;25.77;54.46;98964.97;5111829;28;20082;-49
2021/08/22 01:14:15;;;;;;;6.45;5.43;;;;;;;25.59;54.52;98964.69;5093757;28;20473;-49
2021/08/22 01:16:50;;;;;;;7.72;5.22;;;;;;;25.36;55.01;98968.31;5093704;28;20024;-50
2021/08/22 01:19:34;;;;;;;8.45;5.30;;;;;;;25.15;55.00;98968.53;5093924;28;20039;-49
2021/08/22 01:22:03;;;;;;;6.53;5.32;;;;;;;25.03;54.96;98976.22;5111955;28;20063;-49
2021/08/22 01:24:30;;;;;;;8.45;4.95;;;;;;;25.06;56.04;98970.28;5093686;28;20408;-49
2021/08/22 01:26:57;;;;;;;13.80;4.82;;;;;;;25.48;53.87;98979.41;5111930;28;20032;-49
2021/08/22 01:29:29;;;;;;;11.40;5.40;;;;;;;25.57;53.88;98977.63;5093618;28;20088;-49
2021/08/22 01:31:59;;;;;;;5.38;4.50;;;;;;;25.47;53.85;98983.16;5093611;28;20028;-49
2021/08/22 01:34:27;;;;;;;5.78;5.15;;;;;;;25.39;53.77;98986.50;5093693;28;20031;-49
2021/08/22 01:36:53;;;;;;;12.05;5.97;;;;;;;25.30;54.36;98995.22;5111913;28;20033;-49
2021/08/22 01:39:19;;;;;;;10.63;4.72;;;;;;;25.36;54.33;98990.59;5076696;28;20058;-49
2021/08/22 01:41:48;;;;;;;8.55;4.15;;;;;;;25.75;52.61;98983.28;5093543;28;20019;-49
2021/08/22 01:44:19;;;;;;;8.25;5.10;;;;;;;25.84;52.43;98987.72;5093862;28;20032;-49
2021/08/22 01:46:46;;;;;;;6.70;4.35;;;;;;;25.98;51.57;98987.78;5097302;28;20038;-49
2021/08/22 01:49:13;;;;;;;8.55;4.28;;;;;;;26.18;51.01;98988.50;5115549;28;20034;-49
2021/08/22 01:51:41;;;;;;;13.40;4.78;;;;;;;26.29;51.21;98998.00;5115502;28;20027;-48
2021/08/22 01:54:09;;;;;;;11.02;4.97;;;;;;;26.61;50.87;98991.00;5115454;28;20023;-49
2021/08/22 01:56:36;;;;;;;9.93;5.15;;;;;;;26.99;50.47;99001.56;5115321;28;20431;-48
2021/08/22 01:59:03;;;;;;;19.23;9.00;;;;;;;27.20;49.77;98996.53;5115307;28;20024;-49
2021/08/22 02:01:30;;;;;;;11.23;5.35;;;;;;;27.37;49.15;98996.72;5096967;28;20080;-49
2021/08/22 02:04:27;;;;;;;8.27;4.78;;;;;;;27.55;48.47;98994.16;5096948;28;20111;-50
2021/08/22 02:07:11;;;;;;;8.70;4.75;;;;;;;27.69;48.40;98993.03;5104053;28;20051;-49
2021/08/22 02:09:43;;;;;;;7.25;5.13;;;;;;;27.74;48.00;98994.00;5115288;28;20067;-49
2021/08/22 02:12:16;;;;;;;10.13;4.47;;;;;;;27.83;47.66;98990.25;5114917;28;20048;-49
2021/08/22 02:14:49;;;;;;;15.35;5.97;;;;;;;27.77;47.43;98999.59;5115110;28;20059;-49
2021/08/22 02:17:17;;;;;;;5.88;4.78;;;;;;;27.54;48.08;98997.97;5096750;28;20027;-49
2021/08/22 02:19:43;;;;;;;5.80;4.60;;;;;;;27.48;47.97;99002.69;5079782;28;20055;-49
2021/08/22 02:22:09;;;;;;;6.50;4.28;;;;;;;27.46;48.12;99000.28;5096536;28;20027;-49
2021/08/22 02:24:36;;;;;;;10.55;4.90;;;;;;;27.21;48.14;98998.94;5096563;28;20463;-49
2021/08/22 02:27:02;;;;;;;11.15;5.35;;;;;;;27.15;48.51;98999.34;5114809;28;20027;-49
2021/08/22 02:29:28;;;;;;;6.28;4.38;;;;;;;27.04;49.12;99004.94;5096420;28;20088;-49
2021/08/22 02:31:53;;;;;;;5.70;5.07;;;;;;;27.07;48.59;98998.16;5114722;28;20031;-49
2021/08/22 02:34:19;;;;;;;8.15;4.57;;;;;;;27.09;48.99;98998.66;5114708;28;20087;-49
2021/08/22 02:36:45;;;;;;;8.52;6.13;;;;;;;27.18;48.42;99004.91;5114632;28;20027;-49
2021/08/22 02:39:11;;;;;;;5.93;3.92;;;;;;;27.16;48.46;99001.72;5114530;28;20019;-48
2021/08/22 02:41:36;;;;;;;9.65;4.80;;;;;;;26.87;48.93;99008.25;5114556;28;20024;-49
2021/08/22 02:44:02;;;;;;;5.75;4.00;;;;;;;26.77;49.50;99000.38;5096136;28;20524;-49
2021/08/22 02:46:28;;;;;;;9.32;4.38;;;;;;;26.74;48.96;98998.25;5096105;28;20100;-49
2021/08/22 02:48:53;;;;;;;12.98;5.03;;;;;;;26.74;48.91;98995.56;5096100;28;20035;-49
2021/08/22 02:51:19;;;;;;;9.02;4.10;;;;;;;26.55;48.64;98992.97;5114330;28;20023;-49
2021/08/22 02:53:45;;;;;;;8.57;4.63;;;;;;;26.39;49.56;98992.44;5114363;28;20012;-49
2021/08/22 02:56:10;;;;;;;7.57;3.92;;;;;;;26.48;48.49;98987.16;5094945;28;20045;-49
2021/08/22 02:58:36;;;;;;;8.00;3.80;;;;;;;26.31;48.55;98993.94;5114188;28;20106;-49
2021/08/22 03:01:02;;;;;;;7.43;4.47;;;;;;;26.10;49.20;98990.03;5095729;28;20046;-49
2021/08/22 03:03:27;;;;;;;9.65;6.18;;;;;;;26.14;49.73;98995.59;5114100;28;20092;-48
2021/08/22 03:05:53;;;;;;;6.28;5.15;;;;;;;26.33;48.98;98995.53;5095714;28;20058;-49
2021/08/22 03:08:19;;;;;;;6.45;4.95;;;;;;;26.41;49.68;98992.94;5114074;28;20103;-49
2021/08/22 03:10:45;;;;;;;10.60;6.22;;;;;;;26.66;49.76;98996.28;5113742;28;20036;-49
2021/08/22 03:13:12;;;;;;;8.88;4.50;;;;;;;27.01;48.67;98997.47;5113943;28;20027;-49
2021/08/22 03:15:38;;;;;;;7.40;3.80;;;;;;;27.24;47.74;98995.66;5095533;28;20023;-49
2021/08/22 03:18:04;;;;;;;6.43;3.75;;;;;;;27.16;47.51;98995.53;5114112;28;20024;-49
2021/08/22 03:20:30;;;;;;;14.32;5.15;;;;;;;26.87;47.50;99005.56;5113663;28;20077;-49
2021/08/22 03:22:55;;;;;;;6.10;3.80;;;;;;;26.77;47.56;99007.66;5113743;28;20012;-49
2021/08/22 03:25:21;;;;;;;7.90;5.38;;;;;;;26.72;47.56;99003.16;5113639;28;20038;-48
2021/08/22 03:27:47;;;;;;;6.80;3.63;;;;;;;26.62;47.13;99003.34;5095304;28;20012;-49
2021/08/22 03:30:13;;;;;;;6.82;3.83;;;;;;;26.45;47.25;99010.09;5095253;28;20023;-48
2021/08/22 03:32:39;;;;;;;6.47;3.58;;;;;;;26.25;47.27;99011.25;5113568;28;20031;-49
2021/08/22 03:35:05;;;;;;;5.93;3.80;;;;;;;26.08;47.55;99011.81;5113439;28;20073;-49
2021/08/22 03:37:31;;;;;;;18.40;13.63;;;;;;;25.92;47.94;99010.47;5113494;28;20103;-49
2021/08/22 03:39:57;;;;;;;6.68;3.58;;;;;;;25.78;47.83;99015.00;5113327;28;20106;-49
2021/08/22 03:42:22;;;;;;;5.95;3.33;;;;;;;25.65;48.40;99013.81;5094993;28;20024;-49
2021/08/22 03:44:48;;;;;;;7.00;3.88;;;;;;;25.55;48.49;99014.75;5094978;28;20073;-48
2021/08/22 03:47:13;;;;;;;5.88;3.92;;;;;;;25.50;48.76;99025.59;5113217;28;20027;-49
2021/08/22 03:49:39;;;;;;;6.30;4.00;;;;;;;25.45;48.81;99013.00;5094910;28;20028;-49
2021/08/22 03:52:05;;;;;;;6.05;3.67;;;;;;;25.42;49.16;99013.59;5113165;28;20026;-49
2021/08/22 03:54:31;;;;;;;14.10;8.43;;;;;;;25.40;50.24;99015.00;5094835;28;20188;-49
2021/08/22 03:56:56;;;;;;;7.95;3.80;;;;;;;25.72;49.74;99014.25;5094764;28;20024;-48
2021/08/22 03:59:22;;;;;;;5.53;3.67;;;;;;;25.87;48.83;99005.16;5113002;28;20396;-49
2021/08/22 04:01:48;;;;;;;5.03;3.70;;;;;;;25.88;49.45;99007.53;5113196;28;20035;-49
2021/08/22 04:04:13;;;;;;;13.70;12.32;;;;;;;26.05;49.09;99009.72;5112993;28;20355;-49
2021/08/22 04:06:47;;;;;;;5.53;4.00;;;;;;;26.10;49.17;99006.94;5094627;28;20027;-49
2021/08/22 04:09:13;;;;;;;10.65;4.32;;;;;;;26.17;48.95;99008.47;5094517;28;20264;-49
2021/08/22 04:11:38;;;;;;;12.43;5.00;;;;;;;26.31;48.79;99006.59;5112499;28;20051;-49
2021/08/22 04:14:09;;;;;;;5.63;3.95;;;;;;;26.45;47.51;98998.53;5112688;28;20031;-49
2021/08/22 04:16:35;;;;;;;6.75;4.00;;;;;;;26.54;47.92;99012.91;5112791;28;20520;-49
2021/08/22 04:19:00;;;;;;;10.15;5.00;;;;;;;26.67;47.86;99008.66;5112595;28;20016;-48
2021/08/22 04:21:26;;;;;;;8.45;5.15;;;;;;;26.79;47.35;99008.16;5094326;28;20019;-49
2021/08/22 04:23:52;;;;;;;5.03;3.95;;;;;;;26.76;47.37;99011.44;5112608;28;20032;-49
2021/08/22 04:26:17;;;;;;;12.55;6.20;;;;;;;26.72;47.51;99007.75;5112579;28;20024;-49
2021/08/22 04:28:43;;;;;;;9.18;3.83;;;;;;;26.66;46.61;99021.31;5112566;28;20419;-49
2021/08/22 04:31:09;;;;;;;4.75;3.17;;;;;;;26.51;46.89;99016.97;5094148;28;20028;-48
2021/08/22 04:33:34;;;;;;;20.65;11.30;;;;;;;26.39;46.93;99022.06;5094216;28;20053;-49
2021/08/22 04:36:00;;;;;;;9.70;6.53;;;;;;;26.29;46.42;99022.22;5094160;28;20073;-49
2021/08/22 04:38:26;;;;;;;8.80;3.42;;;;;;;26.23;45.89;99024.22;5112373;28;20111;-49
2021/08/22 04:40:52;;;;;;;7.18;3.58;;;;;;;26.08;46.09;99027.19;5093999;28;20023;-49
2021/08/22 04:43:17;;;;;;;8.38;4.25;;;;;;;25.90;46.12;99016.16;5094058;28;20022;-49
2021/08/22 04:45:43;;;;;;;6.93;3.33;;;;;;;25.70;46.59;99025.31;5112210;28;20027;-49
2021/08/22 04:48:09;;;;;;;6.57;3.58;;;;;;;25.52;47.51;99018.84;5112266;28;20440;-49
2021/08/22 04:50:34;;;;;;;11.65;3.75;;;;;;;25.33;47.83;99007.28;5093922;28;20076;-49
2021/08/22 04:53:00;;;;;;;6.53;3.38;;;;;;;25.21;48.38;99007.72;5112240;28;20061;-49
2021/08/22 04:55:26;;;;;;;7.18;4.30;;;;;;;25.04;48.70;99010.84;5093967;28;20034;-49
2021/08/22 04:57:51;;;;;;;13.45;5.30;;;;;;;24.87;49.26;99015.88;5112192;28;20114;-49
2021/08/22 05:00:17;;;;;;;10.95;5.68;;;;;;;24.78;50.09;99018.41;5112040;28;20077;-49
2021/08/22 05:02:43;;;;;;;9.73;5.22;;;;;;;24.72;50.58;99027.59;5112126;28;20049;-48
2021/08/22 05:05:09;;;;;;;7.25;3.55;;;;;;;24.81;50.46;99030.44;5112391;28;20024;-49
2021/08/22 05:07:34;;;;;;;8.20;4.00;;;;;;;24.93;50.42;99025.47;5093797;28;20047;-49
2021/08/22 05:10:00;;;;;;;8.05;3.42;;;;;;;25.04;49.28;99021.59;5112061;28;20108;-49
2021/08/22 05:12:26;;;;;;;8.50;3.25;;;;;;;25.08;48.71;99025.31;5111900;28;20093;-48
2021/08/22 05:14:55;;;;;;;12.60;6.03;;;;;;;25.03;48.57;99022.69;5093722;28;20035;-49
2021/08/22 05:17:20;;;;;;;17.20;9.35;;;;;;;25.01;48.89;99032.91;5111959;28;20408;-49
2021/08/22 05:19:46;;;;;;;7.00;4.32;;;;;;;25.04;48.50;99023.47;5094621;28;20023;-49
2021/08/22 05:22:12;;;;;;;6.55;3.45;;;;;;;25.09;48.46;99028.78;5116108;28;20060;-48
2021/08/22 05:24:37;;;;;;;7.20;5.50;;;;;;;24.98;49.49;99027.31;5116139;28;20110;-49
2021/08/22 05:27:03;;;;;;;9.52;4.65;;;;;;;25.20;49.43;99032.94;5116006;28;20045;-49
2021/08/22 05:29:29;;;;;;;10.05;5.22;;;;;;;25.43;49.26;99030.53;5097616;28;20031;-50
2021/08/22 05:31:55;;;;;;;8.02;4.53;;;;;;;25.67;49.21;99038.50;5115917;28;20103;-49
2021/08/22 05:34:20;;;;;;;5.70;3.90;;;;;;;25.91;48.55;99027.69;5116150;28;20020;-50
2021/08/22 05:36:46;;;;;;;10.48;4.70;;;;;;;25.96;48.01;99027.63;5097452;28;20020;-49
2021/08/22 05:39:11;;;;;;;14.45;6.53;;;;;;;25.97;48.04;99031.09;5115740;28;20107;-49
2021/08/22 05:41:37;;;;;;;9.35;4.20;;;;;;;26.07;47.97;99037.13;5115729;28;20448;-49
2021/08/22 05:44:04;;;;;;;6.47;3.95;;;;;;;26.17;47.25;99038.06;5097349;28;20575;-50
2021/08/22 05:46:32;;;;;;;6.22;4.20;;;;;;;26.11;47.33;99040.03;5115637;28;20024;-50
2021/08/22 05:48:58;;;;;;;310.90;280.67;;;;;;;26.20;47.09;99035.56;5115601;28;20099;-49
2021/08/22 05:51:23;;;;;;;332.65;299.92;;;;;;;26.34;46.34;99038.31;5115537;28;20107;-50
2021/08/22 05:53:52;;;;;;;327.02;291.92;;;;;;;26.39;45.89;99037.41;5115474;28;20026;-49
2021/08/22 05:56:20;;;;;;;296.83;265.10;;;;;;;26.39;45.67;99043.56;5115447;28;20031;-49
2021/08/22 05:58:46;;;;;;;261.20;232.90;;;;;;;26.35;45.38;99044.47;5114102;28;20020;-49
2021/08/22 06:01:11;;;;;;;432.42;379.83;;;;;;;26.23;45.67;99053.81;5115268;28;20030;-49
2021/08/22 06:03:37;;;;;;;465.27;417.42;;;;;;;26.18;45.90;99050.38;5115371;28;20459;-49
2021/08/22 06:06:07;;;;;;;172.60;140.90;;;;;;;26.10;46.41;99051.88;5115277;28;20055;-49
2021/08/22 06:08:35;;;;;;;48.70;34.75;;;;;;;26.04;46.23;99050.38;5115242;28;20113;-50
2021/08/22 06:11:01;;;;;;;14.35;10.02;;;;;;;26.02;46.39;99066.00;5114619;28;20048;-49
2021/08/22 06:13:26;;;;;;;36.90;30.55;;;;;;;26.00;46.18;99063.59;5115094;28;20027;-49
2021/08/22 06:15:55;;;;;;;45.38;33.45;;;;;;;25.99;46.08;99069.28;5115077;28;20111;-49
2021/08/22 06:18:21;;;;;;;11.20;8.15;;;;;;;26.08;45.79;99064.84;5113751;28;20024;-49
2021/08/22 06:20:47;;;;;;;24.95;20.83;;;;;;;26.28;45.98;99069.09;5114881;28;20061;-49
2021/08/22 06:23:12;;;;;;;13.05;4.40;;;;;;;26.49;44.99;99067.63;5114945;28;20030;-50
2021/08/22 06:25:38;;;;;;;7.03;4.95;;;;;;;26.60;44.45;99072.84;5114881;28;20031;-50
2021/08/22 06:28:05;;;;;;;24.58;16.17;;;;;;;26.70;44.11;99081.56;5114945;28;20055;-49
2021/08/22 06:30:31;;;;;;;27.65;24.80;;;;;;;26.88;44.23;99071.81;5114406;28;20016;-49
2021/08/22 06:32:57;;;;;;;6.57;5.03;;;;;;;27.17;43.48;99073.38;5113909;28;20031;-49
2021/08/22 06:35:23;;;;;;;7.90;4.03;;;;;;;27.27;42.76;99067.03;5096395;28;20042;-49
2021/08/22 06:37:51;;;;;;;12.38;6.75;;;;;;;27.32;42.75;99071.50;5114619;28;20482;-49
2021/08/22 06:40:17;;;;;;;34.00;25.92;;;;;;;27.59;42.76;99073.38;5114460;28;20497;-49
2021/08/22 06:42:43;;;;;;;552.47;475.13;;;;;;;27.89;41.89;99072.69;5113252;28;20020;-50
2021/08/22 06:45:09;;;;;;;375.73;309.27;;;;;;;28.24;41.46;99069.44;5096126;28;20024;-49
2021/08/22 06:47:35;;;;;;;216.57;188.23;;;;;;;28.23;40.56;99073.22;5114470;28;20042;-49
2021/08/22 06:50:00;;;;;;;190.80;145.80;;;;;;;28.14;40.82;99075.09;5113104;28;20117;-49
2021/08/22 06:52:26;;;;;;;95.57;85.55;;;;;;;28.03;41.25;99079.91;5114370;28;20024;-49
2021/08/22 06:54:52;;;;;;;118.97;92.35;;;;;;;28.18;41.02;99078.75;5095950;28;20016;-49
2021/08/22 06:57:17;;;;;;;108.55;98.57;;;;;;;28.53;40.85;99082.47;5095974;28;20023;-49
2021/08/22 06:59:43;;;;;;;9.18;8.30;;;;;;;28.84;39.72;99085.19;5112792;28;20106;-49
2021/08/22 07:02:10;;;;;;;12.27;9.15;;;;;;;28.88;39.80;99079.97;5114178;28;20027;-49
2021/08/22 07:04:37;;;;;;;4.00;2.88;;;;;;;29.18;38.56;99074.84;5114156;28;20016;-49
2021/08/22 07:07:03;;;;;;;5.90;2.83;;;;;;;29.08;38.59;99084.78;5095756;28;20562;-49
2021/08/22 07:09:29;;;;;;;5.22;3.53;;;;;;;29.00;38.80;99082.06;5114057;28;20032;-49
2021/08/22 07:11:54;;;;;;;10.90;4.65;;;;;;;28.90;38.79;99085.84;5113755;28;20039;-49
2021/08/22 07:14:20;;;;;;;8.60;4.60;;;;;;;29.44;38.04;99083.00;5113953;28;20575;-49
2021/08/22 07:16:46;;;;;;;34.72;27.63;;;;;;;30.35;36.62;99077.78;5095597;28;20119;-49
2021/08/22 07:19:14;;;;;;;16.08;12.70;;;;;;;30.67;35.65;99084.53;5113839;28;20046;-49
2021/08/22 07:21:40;;;;;;;50.03;45.47;;;;;;;30.90;35.71;99087.03;5113792;28;20366;-49
2021/08/22 07:24:06;;;;;;;8.63;6.07;;;;;;;31.26;34.65;99081.88;5113781;28;20030;-49
2021/08/22 07:26:31;;;;;;;5.60;4.40;;;;;;;31.42;34.37;99078.59;5113683;28;20446;-49
2021/08/22 07:28:57;;;;;;;8.07;4.20;;;;;;;31.69;33.81;99084.66;5095362;28;20027;-49
2021/08/22 07:31:23;;;;;;;4.70;3.22;;;;;;;31.99;33.15;99075.28;5113607;28;20048;-49
2021/08/22 07:33:49;;;;;;;8.13;3.10;;;;;;;31.92;33.02;99077.75;5113573;28;20031;-49
2021/08/22 07:36:14;;;;;;;7.82;3.55;;;;;;;32.29;32.19;99077.13;5113510;28;20027;-49
2021/08/22 07:38:40;;;;;;;3.92;2.97;;;;;;;32.63;31.75;99074.03;5095191;28;20631;-48
2021/08/22 07:41:06;;;;;;;6.65;3.50;;;;;;;32.72;31.31;99070.41;5113297;28;20602;-48
2021/08/22 07:43:32;;;;;;;4.10;3.10;;;;;;;32.70;31.11;99072.69;5112912;28;20027;-49
2021/08/22 07:45:58;;;;;;;6.45;3.75;;;;;;;32.70;31.14;99070.78;5095049;28;20023;-48
2021/08/22 07:48:24;;;;;;;4.03;2.85;;;;;;;32.62;31.40;99074.38;5113278;28;20020;-49
2021/08/22 07:50:49;;;;;;;4.05;3.00;;;;;;;32.66;31.48;99083.44;5113208;28;20027;-49
2021/08/22 07:53:17;;;;;;;5.97;4.03;;;;;;;32.61;31.15;99083.66;5113198;28;20047;-49
2021/08/22 07:55:43;;;;;;;4.85;2.92;;;;;;;32.86;30.64;99073.63;5113090;28;20012;-48
2021/08/22 07:58:09;;;;;;;3.22;2.50;;;;;;;33.27;29.62;99085.41;5113128;28;20460;-49
2021/08/22 08:00:35;;;;;;;4.63;2.22;;;;;;;33.63;29.39;99086.50;5094618;28;20011;-49
2021/08/22 08:03:01;;;;;;;23.35;5.53;;;;;;;34.16;28.14;99084.47;5094807;28;20028;-49
2021/08/22 08:05:27;;;;;;;20.88;4.63;;;;;;;34.57;27.67;99079.72;5094583;28;20037;-49
2021/08/22 08:07:52;;;;;;;7.15;2.97;;;;;;;34.97;27.07;99088.84;5112982;28;20024;-49
2021/08/22 08:10:18;;;;;;;5.53;2.95;;;;;;;35.16;26.68;99078.03;5112631;28;20497;-50
2021/08/22 08:12:45;;;;;;;13.63;12.05;;;;;;;35.19;26.41;99079.25;5112835;28;20031;-49
2021/08/22 08:15:12;;;;;;;5.20;3.65;;;;;;;35.75;26.08;99099.97;5111412;28;20020;-49
2021/08/22 08:17:38;;;;;;;4.22;3.50;;;;;;;35.94;25.60;99093.72;5112762;28;20505;-49
2021/08/22 08:20:05;;;;;;;4.95;2.58;;;;;;;36.28;25.12;99094.81;5094304;28;20049;-49
2021/08/22 08:22:32;;;;;;;11.75;10.02;;;;;;;36.48;24.85;99092.00;5112844;28;20035;-49
2021/08/22 08:24:58;;;;;;;28.38;25.42;;;;;;;36.41;25.25;99091.88;5111339;28;20490;-49
2021/08/22 08:27:24;;;;;;;7.97;7.13;;;;;;;36.73;24.72;99093.25;5111269;28;20477;-49
2021/08/22 08:29:51;;;;;;;4.50;3.63;;;;;;;36.92;24.30;99088.84;5112616;28;20067;-49
2021/08/22 08:32:17;;;;;;;7.25;3.47;;;;;;;36.94;24.35;99092.78;5094234;28;20499;-49
2021/08/22 08:34:43;;;;;;;4.60;3.90;;;;;;;36.83;24.74;99093.78;5112459;28;20024;-49
2021/08/22 08:37:09;;;;;;;6.53;3.33;;;;;;;37.05;24.59;99092.97;5094144;28;20405;-49
2021/08/22 08:39:37;;;;;;;4.40;2.40;;;;;;;36.72;24.83;99088.91;5112366;28;20462;-49
2021/08/22 08:42:13;;;;;;;7.18;5.45;;;;;;;36.79;25.03;99094.50;5112402;28;20023;-49
2021/08/22 08:44:39;;;;;;;30.95;28.25;;;;;;;36.87;25.13;99089.94;5112305;28;20035;-50
2021/08/22 08:47:07;;;;;;;7.75;6.50;;;;;;;36.88;24.77;99094.25;5112341;28;20019;-49
2021/08/22 08:49:34;;;;;;;7.05;4.07;;;;;;;36.88;24.77;99088.78;5112284;28;20055;-49
2021/08/22 08:52:20;;;;;;;4.97;3.38;;;;;;;36.64;25.08;99095.44;5112252;28;20031;-49
2021/08/22 08:54:52;;;;;;;7.78;4.38;;;;;;;35.71;26.29;99105.38;5111451;28;20019;-49
2021/08/22 08:57:18;;;;;;;6.40;4.22;;;;;;;35.08;27.17;99106.28;5093957;28;20028;-49
2021/08/22 08:59:43;;;;;;;9.10;8.32;;;;;;;34.31;28.39;99102.03;5112061;28;20020;-49
2021/08/22 09:02:09;;;;;;;5.75;3.28;;;;;;;33.93;29.15;99111.47;5112106;28;20031;-49
2021/08/22 09:04:50;;;;;;;3.42;3.13;;;;;;;33.30;29.46;99106.47;5112180;28;20020;-49
2021/08/22 09:07:21;;;;;;;5.72;4.28;;;;;;;32.95;30.51;99103.41;5093920;28;20476;-49
2021/08/22 09:10:18;;;;;;;6.15;4.82;;;;;;;32.74;30.75;99109.75;5112134;28;20028;-49
2021/08/22 09:13:21;;;;;;;4.88;3.45;;;;;;;32.42;31.49;99103.19;5112128;28;20036;-49
2021/08/22 09:16:20;;;;;;;2.97;2.78;;;;;;;32.63;30.95;99114.00;5112092;28;20066;-49
2021/08/22 09:19:37;;;;;;;9.60;4.00;;;;;;;33.00;31.30;99095.81;5093751;28;20020;-49
2021/08/22 09:22:40;;;;;;;7.13;6.00;;;;;;;33.20;30.54;99102.31;5111983;28;20046;-49
2021/08/22 09:25:43;;;;;;;6.18;3.70;;;;;;;33.73;30.52;99102.34;5111940;28;20019;-49
2021/08/22 09:28:27;;;;;;;3.42;2.90;;;;;;;35.15;28.49;99092.00;5111908;28;20562;-49
2021/08/22 09:31:34;;;;;;;7.43;3.42;;;;;;;36.32;27.15;99094.84;5111938;28;20015;-49
2021/08/22 09:34:27;;;;;;;4.07;2.78;;;;;;;37.14;25.15;99093.50;5111322;28;20039;-50
2021/08/22 09:37:09;;;;;;;6.15;2.90;;;;;;;38.07;24.39;99087.66;5111863;28;20396;-52
2021/08/22 09:40:13;;;;;;;5.07;3.25;;;;;;;39.00;23.18;99083.03;5111748;28;20051;-52
2021/08/22 09:42:57;;;;;;;8.55;4.32;;;;;;;39.62;22.70;99084.16;5080576;28;20111;-52
2021/08/22 09:45:47;;;;;;;3.53;3.20;;;;;;;40.37;21.29;99087.16;5093509;28;20039;-52
2021/08/22 09:48:34;;;;;;;6.30;2.80;;;;;;;40.75;20.46;99089.53;5093497;28;20156;-51
2021/08/22 09:51:37;;;;;;;5.10;3.92;;;;;;;40.83;20.79;99085.59;5093413;28;20035;-52
2021/08/22 09:54:44;;;;;;;5.43;4.50;;;;;;;41.11;20.91;99091.06;5093391;28;20026;-52
2021/08/22 09:57:35;;;;;;;5.70;2.95;;;;;;;40.82;20.55;99084.81;5088866;28;20032;-52
2021/08/22 10:00:38;;;;;;;5.32;4.00;;;;;;;40.07;21.06;99082.75;5093293;28;20027;-51
2021/08/22 10:03:31;;;;;;;5.80;4.28;;;;;;;40.00;21.15;99084.69;5111682;28;20046;-52
2021/08/22 10:06:51;;;;;;;6.43;3.00;;;;;;;40.07;21.22;99084.72;5112903;28;20497;-52
2021/08/22 10:09:23;;;;;;;5.07;2.97;;;;;;;39.82;21.08;99079.91;5032490;28;20029;-51
2021/08/22 10:12:02;;;;;;;4.10;2.40;;;;;;;40.01;21.08;99084.31;5032183;28;20053;-52
2021/08/22 10:14:29;;;;;;;11.52;5.63;;;;;;;40.39;20.98;99078.50;5015818;28;20538;-52
2021/08/22 10:16:55;;;;;;;3.70;2.90;;;;;;;40.76;20.34;99069.09;5015632;28;20519;-53
2021/08/22 10:19:26;;;;;;;3.03;2.70;;;;;;;40.73;20.39;99076.94;5032112;28;20115;-51
2021/08/22 10:22:12;;;;;;;3.55;2.38;;;;;;;40.85;20.43;99073.03;5032317;28;20507;-52
2021/08/22 10:24:38;;;;;;;4.35;2.33;;;;;;;41.02;20.15;99070.63;5032218;28;20145;-51
2021/08/22 10:27:05;;;;;;;3.45;2.30;;;;;;;41.11;20.21;99060.78;5032180;28;20093;-52
2021/08/22 10:29:33;;;;;;;4.38;3.47;;;;;;;41.30;20.00;99067.03;5032108;28;20061;-52
2021/08/22 10:31:58;;;;;;;5.43;4.00;;;;;;;41.27;20.19;99056.81;5031912;28;20022;-53
2021/08/22 10:34:25;;;;;;;3.78;2.42;;;;;;;41.37;19.86;99067.00;5031982;28;20033;-51
2021/08/22 10:36:52;;;;;;;5.47;2.58;;;;;;;41.81;19.39;99051.09;5031839;28;20034;-52
2021/08/22 10:39:26;;;;;;;3.75;2.33;;;;;;;41.87;19.16;99057.75;5015392;28;20033;-52
2021/08/22 10:41:55;;;;;;;3.35;2.50;;;;;;;41.64;19.71;99055.53;5031942;28;20048;-52
2021/08/22 10:44:35;;;;;;;5.47;2.78;;;;;;;41.04;19.69;99049.78;5089541;28;20505;-51
2021/08/22 10:47:09;;;;;;;6.72;3.17;;;;;;;40.28;20.28;99054.50;5094170;28;20097;-52
2021/08/22 10:49:50;;;;;;;6.85;2.55;;;;;;;39.73;21.18;99049.28;5092785;28;20032;-52
2021/08/22 10:52:26;;;;;;;3.83;2.70;;;;;;;40.13;20.87;99056.47;5094031;28;20028;-51
2021/08/22 10:55:13;;;;;;;4.53;2.38;;;;;;;40.37;20.43;99048.66;5093954;28;20028;-51
2021/08/22 10:57:42;;;;;;;3.67;2.95;;;;;;;40.59;20.18;99049.44;5092649;28;20497;-52
2021/08/22 11:00:28;;;;;;;3.35;2.17;;;;;;;40.87;20.00;99045.88;5093809;28;20077;-53
2021/08/22 11:02:59;;;;;;;6.65;3.67;;;;;;;40.83;20.05;99047.88;5093890;28;20104;-52
2021/08/22 11:05:33;;;;;;;8.98;7.72;;;;;;;41.10;20.08;99044.66;5092438;28;20063;-52
2021/08/22 11:08:16;;;;;;;;;;;;;;;41.44;19.97;99039.44;5094296;28;20020;-52
2021/08/22 11:11:05;;;;;;;2.78;2.30;;;;;;;40.53;20.71;99040.00;5097031;28;19923;-53
2021/08/22 11:13:32;;;;;;;3.90;2.17;;;;;;;40.39;20.87;99032.53;5095730;28;20147;-52
2021/08/22 11:16:09;;;;;;;5.32;2.55;;;;;;;40.52;20.64;99038.41;5114027;28;20031;-52
2021/08/22 11:18:36;;;;;;;4.95;2.53;;;;;;;40.61;20.84;99030.56;5095245;28;20081;-51
2021/08/22 11:21:03;;;;;;;5.45;3.67;;;;;;;40.71;20.40;99029.75;5113861;28;20077;-52
2021/08/22 11:23:29;;;;;;;10.02;3.90;;;;;;;40.68;20.59;99030.53;5113857;28;20047;-52
2021/08/22 11:26:04;;;;;;;4.65;2.58;;;;;;;40.98;20.29;99026.59;5095479;28;20122;-52
2021/08/22 11:28:29;;;;;;;4.15;2.97;;;;;;;41.30;19.95;99031.22;5113778;28;20438;-52
2021/08/22 11:30:55;;;;;;;5.22;2.55;;;;;;;41.56;19.78;99029.16;5095361;28;20085;-52
2021/08/22 11:33:21;;;;;;;5.95;2.95;;;;;;;41.60;19.85;99032.72;5095288;28;20063;-52
2021/08/22 11:35:48;;;;;;;4.00;2.55;;;;;;;41.34;19.97;99020.19;5113572;28;20028;-52
2021/08/22 11:38:15;;;;;;;5.20;3.05;;;;;;;41.04;20.23;99024.22;5113486;28;20084;-53
2021/08/22 11:40:42;;;;;;;5.53;2.55;;;;;;;41.28;20.25;99019.81;5113396;28;20019;-52